Time;durP1;ratioP1;P1;durP2;ratioP2;P2;SDS_P1;SDS_P2;PMS_P1;PMS_P2;Temp;Humidity;BMP_temperature;BMP_pressure;BME280_temperature;BME280_humidity;BME280_pressure;Samples;Min_cycle;Max_cycle;Signal;HPM_P1;HPM_P2
2022/01/18 00:01:52;;;;;;;64.03;9.48;;;7.40;99.90;;;;;;4973070;28;20057;-75
2022/01/18 00:04:18;;;;;;;61.85;8.45;;;7.40;99.90;;;;;;5007468;28;20045;-76
2022/01/18 00:06:48;;;;;;;60.10;8.55;;;7.40;99.90;;;;;;4996737;28;20042;-76
2022/01/18 00:09:15;;;;;;;56.95;8.98;;;7.30;99.90;;;;;;4975926;28;20048;-75
2022/01/18 00:11:49;;;;;;;61.50;8.20;;;7.20;99.90;;;;;;4993915;28;20445;-76
2022/01/18 00:17:29;;;;;;;57.67;8.75;;;7.20;99.90;;;;;;4959270;28;20395;-76
2022/01/18 00:19:56;;;;;;;64.45;8.35;;;7.10;99.90;;;;;;4978811;28;20141;-75
2022/01/18 00:22:25;;;;;;;51.28;7.75;;;7.00;99.90;;;;;;4991626;28;20043;-75
2022/01/18 00:24:52;;;;;;;56.97;8.35;;;7.10;99.90;;;;;;5008443;28;20052;-75
2022/01/18 00:27:18;;;;;;;52.80;7.13;;;7.00;99.90;;;;;;4992471;28;20151;-75
2022/01/18 00:30:01;;;;;;;57.05;8.98;;;7.00;99.90;;;;;;5009553;28;20081;-75
2022/01/18 00:35:10;;;;;;;51.45;8.13;;;6.90;99.90;;;;;;4994197;28;20121;-75
2022/01/18 00:37:39;;;;;;;44.80;7.70;;;6.90;99.90;;;;;;4994389;28;20037;-75
2022/01/18 00:40:06;;;;;;;57.08;7.10;;;6.90;99.90;;;;;;4993698;28;20038;-76
2022/01/18 00:42:32;;;;;;;56.97;8.07;;;6.90;99.90;;;;;;4977366;28;20428;-76
2022/01/18 00:44:58;;;;;;;61.58;8.40;;;6.80;99.90;;;;;;5010604;28;20050;-75
2022/01/18 00:47:23;;;;;;;46.67;7.03;;;6.80;99.90;;;;;;5005196;28;20042;-76
2022/01/18 00:49:57;;;;;;;59.35;7.63;;;6.80;99.90;;;;;;4998566;28;20038;-75
2022/01/18 00:52:23;;;;;;;72.05;8.77;;;6.70;99.90;;;;;;4992440;28;20042;-76
2022/01/18 00:54:49;;;;;;;51.25;8.40;;;6.70;99.90;;;;;;4977494;28;20065;-75
2022/01/18 00:57:14;;;;;;;60.38;7.47;;;6.70;99.90;;;;;;4969980;28;20486;-75
2022/01/18 00:59:41;;;;;;;51.22;8.07;;;6.60;99.90;;;;;;4975424;28;20061;-75
2022/01/18 01:02:08;;;;;;;54.53;8.85;;;6.60;99.90;;;;;;4988065;28;20073;-76
2022/01/18 01:04:39;;;;;;;54.60;8.23;;;6.60;99.90;;;;;;4973971;28;20041;-75
2022/01/18 01:07:04;;;;;;;67.15;9.20;;;6.60;99.90;;;;;;5006797;28;20042;-75
2022/01/18 01:09:30;;;;;;;50.42;7.90;;;6.60;99.90;;;;;;5000787;28;20044;-75
2022/01/18 01:11:56;;;;;;;64.28;10.23;;;6.60;99.90;;;;;;4997951;28;20049;-75
2022/01/18 01:14:24;;;;;;;54.92;7.75;;;6.50;99.90;;;;;;4979769;28;20093;-75
2022/01/18 01:17:01;;;;;;;55.33;7.80;;;6.60;99.90;;;;;;4986927;28;20088;-75
2022/01/18 01:43:30;;;;;;;55.47;7.68;;;6.40;99.90;;;;;;4984457;28;20619;-75
2022/01/18 01:45:56;;;;;;;44.13;6.65;;;6.50;99.90;;;;;;4996359;28;20038;-75
2022/01/18 01:48:24;;;;;;;53.72;7.38;;;6.50;99.90;;;;;;4993422;28;20037;-75
2022/01/18 01:53:18;;;;;;;58.47;7.47;;;6.50;99.90;;;;;;4993886;28;20077;-75
2022/01/18 01:55:44;;;;;;;47.75;7.32;;;6.50;99.90;;;;;;4994157;28;20038;-75
2022/01/18 01:58:10;;;;;;;49.88;7.82;;;6.50;99.90;;;;;;5007062;28;20049;-75
2022/01/18 02:00:46;;;;;;;52.83;8.77;;;6.50;99.90;;;;;;5012053;28;20493;-75
2022/01/18 02:03:14;;;;;;;39.25;6.47;;;6.50;99.90;;;;;;4979459;28;20128;-76
2022/01/18 02:05:39;;;;;;;51.40;8.35;;;6.50;99.90;;;;;;5006618;28;20061;-76
2022/01/18 02:08:07;;;;;;;55.00;7.20;;;6.50;99.90;;;;;;4996415;28;20038;-75
2022/01/18 02:10:40;;;;;;;56.00;7.63;;;6.60;99.90;;;;;;4995084;28;20034;-75
2022/01/18 02:13:08;;;;;;;57.50;7.95;;;6.50;99.90;;;;;;5006679;28;20053;-75
2022/01/18 02:15:42;;;;;;;68.13;7.70;;;6.60;99.90;;;;;;4997527;28;20413;-75
2022/01/18 02:23:37;;;;;;;54.80;7.72;;;6.60;99.90;;;;;;5000109;28;20690;-75
2022/01/18 02:26:03;;;;;;;39.10;6.72;;;6.60;99.90;;;;;;4994371;28;20390;-75
2022/01/18 02:28:29;;;;;;;48.95;7.18;;;6.60;99.90;;;;;;4980934;28;20045;-75
2022/01/18 02:30:55;;;;;;;42.60;6.18;;;6.60;99.90;;;;;;4997684;28;20037;-75
2022/01/18 02:33:21;;;;;;;46.95;7.65;;;6.60;99.90;;;;;;4992177;28;20560;-75
2022/01/18 02:35:48;;;;;;;54.75;6.75;;;6.60;99.90;;;;;;5011768;28;20420;-75
2022/01/18 02:38:14;;;;;;;52.95;6.30;;;6.60;99.90;;;;;;5008903;28;20337;-76
2022/01/18 02:40:41;;;;;;;39.90;6.82;;;6.50;99.90;;;;;;5009758;28;20046;-75
2022/01/18 02:45:55;;;;;;;30.67;5.43;;;6.60;99.90;;;;;;4988611;28;20046;-76
2022/01/18 02:48:22;;;;;;;60.30;7.15;;;6.50;99.90;;;;;;4988178;28;20048;-75
2022/01/18 02:50:48;;;;;;;38.17;5.70;;;6.60;99.90;;;;;;4989884;28;20161;-75
2022/01/18 02:53:16;;;;;;;41.15;5.50;;;6.60;99.90;;;;;;5012509;28;20037;-76
2022/01/18 02:55:43;;;;;;;42.50;6.55;;;6.60;99.90;;;;;;4972464;28;20121;-75
2022/01/18 02:58:10;;;;;;;45.25;5.82;;;6.60;99.90;;;;;;4963040;28;20065;-75
2022/01/18 03:03:33;;;;;;;45.92;7.57;;;6.60;99.90;;;;;;4977575;28;20046;-75
2022/01/18 03:06:00;;;;;;;47.13;6.88;;;6.60;99.90;;;;;;5009860;28;20042;-75
2022/01/18 03:08:27;;;;;;;41.33;6.75;;;6.60;99.90;;;;;;4982163;28;20591;-76
2022/01/18 03:10:53;;;;;;;34.80;5.80;;;6.70;99.90;;;;;;4975062;28;20502;-75
2022/01/18 03:13:19;;;;;;;41.60;5.38;;;6.60;99.90;;;;;;5009135;28;20042;-75
2022/01/18 03:15:45;;;;;;;38.72;6.03;;;6.60;99.90;;;;;;4996366;28;20456;-75
2022/01/18 03:18:11;;;;;;;31.90;4.95;;;6.70;99.90;;;;;;4998778;28;20489;-75
2022/01/18 03:20:38;;;;;;;32.55;5.05;;;6.70;99.90;;;;;;4980486;28;20050;-75
2022/01/18 03:23:12;;;;;;;40.63;5.05;;;6.70;99.90;;;;;;4992760;28;20043;-75
2022/01/18 03:25:54;;;;;;;33.25;4.18;;;6.70;99.90;;;;;;4985230;28;20050;-76
2022/01/18 03:28:20;;;;;;;31.45;4.65;;;6.70;99.90;;;;;;5002291;28;20046;-75
2022/01/18 03:30:49;;;;;;;31.17;4.60;;;6.70;99.90;;;;;;5004276;28;20073;-75
2022/01/18 03:33:18;;;;;;;41.95;5.30;;;6.70;99.90;;;;;;4992957;28;20038;-75
2022/01/18 03:35:49;;;;;;;28.98;3.50;;;6.70;99.90;;;;;;4992587;28;20050;-75
2022/01/18 03:38:17;;;;;;;29.90;3.95;;;6.70;99.90;;;;;;5009364;28;20038;-76
2022/01/18 03:40:42;;;;;;;36.63;4.40;;;6.70;99.90;;;;;;4981136;28;20111;-76
2022/01/18 03:43:11;;;;;;;36.03;5.53;;;6.70;99.90;;;;;;4978174;28;20038;-75
2022/01/18 03:45:41;;;;;;;30.13;4.45;;;6.70;99.90;;;;;;5009123;28;20053;-75
2022/01/18 03:48:15;;;;;;;26.52;3.50;;;6.70;99.90;;;;;;5014885;28;20117;-75
2022/01/18 03:50:42;;;;;;;24.60;3.78;;;6.70;99.90;;;;;;4990269;28;20192;-75
2022/01/18 03:53:12;;;;;;;22.75;4.13;;;6.80;99.90;;;;;;4975489;28;20050;-75
2022/01/18 03:55:37;;;;;;;34.95;4.70;;;6.80;99.90;;;;;;4975104;28;20105;-75
2022/01/18 03:58:03;;;;;;;31.95;4.47;;;6.80;99.90;;;;;;4996915;28;20077;-76
2022/01/18 04:00:29;;;;;;;35.97;5.57;;;6.70;99.90;;;;;;4960991;28;20396;-76
2022/01/18 04:02:57;;;;;;;24.02;3.42;;;6.80;99.90;;;;;;4995927;28;20061;-75
2022/01/18 04:05:23;;;;;;;30.55;4.82;;;6.80;99.90;;;;;;5002034;28;20046;-76
2022/01/18 04:07:49;;;;;;;28.50;4.90;;;6.80;99.90;;;;;;4989465;28;20126;-76
2022/01/18 04:10:15;;;;;;;30.08;3.58;;;6.80;99.90;;;;;;4969274;28;20045;-76
2022/01/18 04:12:41;;;;;;;25.88;3.90;;;6.80;99.90;;;;;;4988643;28;21870;-75
2022/01/18 04:15:12;;;;;;;22.58;3.67;;;6.80;99.90;;;;;;4989545;28;20103;-75
2022/01/18 04:28:35;;;;;;;26.23;4.22;;;6.70;99.90;;;;;;5001845;28;20555;-76
2022/01/18 04:31:02;;;;;;;21.70;4.05;;;6.70;99.90;;;;;;4970732;28;20500;-76
2022/01/18 04:33:28;;;;;;;18.88;3.20;;;6.70;99.90;;;;;;4987361;28;20446;-75
2022/01/18 04:35:53;;;;;;;23.70;4.28;;;6.70;99.90;;;;;;4990875;28;20120;-76
2022/01/18 04:38:19;;;;;;;24.42;5.00;;;6.60;99.90;;;;;;4980182;28;20041;-75
2022/01/18 04:40:46;;;;;;;24.50;3.47;;;6.60;99.90;;;;;;4976937;28;20050;-76
2022/01/18 04:43:23;;;;;;;23.38;3.58;;;6.60;99.90;;;;;;4979604;28;20038;-76
2022/01/18 04:48:35;;;;;;;18.38;3.50;;;6.50;99.90;;;;;;4994117;28;20389;-75
2022/01/18 04:51:07;;;;;;;19.70;3.33;;;6.60;99.90;;;;;;4976785;28;20061;-75
2022/01/18 04:53:51;;;;;;;23.20;3.67;;;6.50;99.90;;;;;;4989120;28;20038;-75
2022/01/18 04:56:27;;;;;;;26.42;4.38;;;6.50;99.90;;;;;;4992646;28;20053;-75
2022/01/18 04:58:53;;;;;;;20.25;4.40;;;6.50;99.90;;;;;;5008901;28;20092;-75
2022/01/18 05:01:19;;;;;;;20.98;4.50;;;6.50;99.90;;;;;;5007066;28;20087;-75
2022/01/18 05:03:45;;;;;;;22.38;5.15;;;6.50;99.90;;;;;;5004003;28;20440;-75
2022/01/18 05:06:14;;;;;;;18.98;4.90;;;6.50;99.90;;;;;;5006623;28;20050;-75
2022/01/18 05:08:40;;;;;;;17.25;3.58;;;6.50;99.90;;;;;;5007181;28;20043;-75
2022/01/18 05:11:08;;;;;;;20.27;3.75;;;6.50;99.90;;;;;;5005472;28;20038;-74
2022/01/18 05:21:25;;;;;;;18.95;3.47;;;6.50;99.90;;;;;;4991571;28;20053;-75
2022/01/18 05:23:50;;;;;;;17.67;2.92;;;6.50;99.90;;;;;;4976695;28;20056;-74
2022/01/18 05:26:16;;;;;;;18.17;4.30;;;6.50;99.90;;;;;;5002525;28;20077;-75
2022/01/18 05:28:45;;;;;;;22.08;2.90;;;6.50;99.90;;;;;;4993865;28;20610;-75
2022/01/18 05:31:11;;;;;;;13.95;2.80;;;6.50;99.90;;;;;;4975157;28;20221;-75
2022/01/18 05:33:38;;;;;;;11.95;2.70;;;6.50;99.90;;;;;;5007446;28;20404;-75
2022/01/18 05:36:04;;;;;;;23.00;2.88;;;6.50;99.90;;;;;;4979888;28;20458;-75
2022/01/18 05:38:32;;;;;;;17.98;3.30;;;6.60;99.90;;;;;;4992718;28;20540;-75
2022/01/18 05:40:58;;;;;;;12.52;2.33;;;6.50;99.90;;;;;;4977211;28;20493;-75
2022/01/18 05:43:23;;;;;;;16.88;2.88;;;6.50;99.90;;;;;;4993199;28;20042;-75
2022/01/18 05:45:49;;;;;;;16.48;2.83;;;6.50;99.90;;;;;;4973891;28;20172;-75
2022/01/18 05:48:15;;;;;;;20.27;3.30;;;6.50;99.90;;;;;;4991496;28;20034;-75
2022/01/18 05:50:40;;;;;;;17.48;3.88;;;6.60;99.90;;;;;;5006851;28;20957;-75
2022/01/18 05:53:06;;;;;;;13.60;2.70;;;6.50;99.90;;;;;;4992127;28;20038;-75
2022/01/18 05:55:32;;;;;;;15.35;4.00;;;6.50;99.90;;;;;;5007865;28;20037;-75
2022/01/18 05:57:57;;;;;;;25.10;4.50;;;6.50;99.90;;;;;;5007653;28;20046;-75
2022/01/18 06:00:25;;;;;;;19.58;3.85;;;6.50;99.90;;;;;;4986535;28;20089;-75
2022/01/18 06:08:08;;;;;;;20.35;4.53;;;6.50;99.90;;;;;;4977915;28;20042;-74
2022/01/18 06:10:34;;;;;;;18.25;4.10;;;6.40;99.90;;;;;;4994039;28;20053;-75
2022/01/18 06:13:02;;;;;;;19.70;4.40;;;6.40;99.90;;;;;;4988829;28;20398;-75
2022/01/18 06:15:28;;;;;;;18.45;3.47;;;6.40;99.90;;;;;;4996192;28;20042;-75
2022/01/18 06:17:54;;;;;;;21.92;4.13;;;6.40;99.90;;;;;;4977994;28;20061;-75
2022/01/18 06:20:19;;;;;;;18.45;4.35;;;6.40;99.90;;;;;;4979351;28;20043;-75
2022/01/18 06:22:45;;;;;;;20.85;4.00;;;6.40;99.90;;;;;;5011802;28;20042;-75
2022/01/18 06:25:11;;;;;;;20.08;4.40;;;6.40;99.90;;;;;;4997465;28;20125;-75
2022/01/18 06:27:37;;;;;;;17.77;3.72;;;6.40;99.90;;;;;;4974341;28;20038;-76
2022/01/18 06:30:09;;;;;;;16.60;4.00;;;6.60;99.90;;;;;;5008407;28;20473;-76
2022/01/18 06:32:36;;;;;;;11.15;3.28;;;6.40;99.90;;;;;;5002795;28;20513;-76
2022/01/18 06:35:03;;;;;;;15.18;4.32;;;6.40;99.90;;;;;;4973316;28;20053;-76
2022/01/18 06:37:28;;;;;;;19.30;4.60;;;6.40;99.90;;;;;;4971939;28;20501;-76
2022/01/18 06:39:57;;;;;;;18.80;5.03;;;6.40;99.90;;;;;;4988978;28;20045;-76
2022/01/18 06:42:24;;;;;;;21.45;5.10;;;6.40;99.90;;;;;;5008840;28;20385;-76
2022/01/18 06:44:50;;;;;;;15.00;4.70;;;6.30;99.90;;;;;;4975000;28;20100;-76
2022/01/18 06:47:16;;;;;;;15.32;4.50;;;6.30;99.90;;;;;;4975883;28;20120;-77
2022/01/18 06:49:42;;;;;;;22.60;4.90;;;6.30;99.90;;;;;;5008558;28;20045;-76
2022/01/18 06:52:07;;;;;;;26.98;5.82;;;6.30;99.90;;;;;;4993964;28;20042;-76
2022/01/18 06:54:33;;;;;;;16.42;4.65;;;6.30;99.90;;;;;;4996121;28;20405;-77
2022/01/18 06:56:59;;;;;;;24.80;4.90;;;6.30;99.90;;;;;;4992348;28;20065;-76
2022/01/18 06:59:25;;;;;;;22.73;4.22;;;6.30;99.90;;;;;;4993612;28;20069;-76
2022/01/18 07:01:50;;;;;;;24.42;5.07;;;6.30;99.90;;;;;;4994690;28;20038;-76
2022/01/18 07:04:16;;;;;;;16.00;3.85;;;6.20;99.90;;;;;;4975633;28;20410;-76
2022/01/18 07:06:42;;;;;;;19.30;4.32;;;6.20;99.90;;;;;;4978973;28;20121;-76
2022/01/18 07:09:08;;;;;;;15.32;3.75;;;6.20;99.90;;;;;;4975807;28;20464;-76
2022/01/18 07:11:33;;;;;;;17.10;3.72;;;5.70;99.90;;;;;;5015125;28;20061;-76
2022/01/18 07:13:59;;;;;;;17.02;4.32;;;6.20;99.90;;;;;;4974804;28;20120;-76
2022/01/18 07:16:25;;;;;;;14.40;3.72;;;6.10;99.90;;;;;;5011743;28;20064;-76
2022/01/18 07:18:51;;;;;;;14.13;3.88;;;6.10;99.90;;;;;;4993294;28;20050;-76
2022/01/18 07:21:16;;;;;;;23.80;4.60;;;6.00;99.90;;;;;;4979574;28;20046;-76
2022/01/18 07:23:42;;;;;;;19.17;4.72;;;6.00;99.90;;;;;;5010137;28;20177;-76
2022/01/18 07:26:08;;;;;;;23.30;4.07;;;6.00;99.90;;;;;;4995252;28;20042;-77
2022/01/18 07:28:33;;;;;;;18.80;4.10;;;6.00;99.90;;;;;;4994268;28;20037;-76
2022/01/18 07:31:00;;;;;;;18.83;5.30;;;6.00;99.90;;;;;;4996868;28;20077;-76
2022/01/18 07:33:25;;;;;;;14.73;3.80;;;6.00;99.90;;;;;;4993777;28;20152;-76
2022/01/18 07:35:51;;;;;;;24.73;5.20;;;6.00;99.90;;;;;;4996003;28;20153;-76
2022/01/18 07:38:18;;;;;;;16.98;4.15;;;6.00;99.90;;;;;;4994990;28;20050;-77
2022/01/18 07:40:48;;;;;;;14.73;4.88;;;6.00;99.90;;;;;;4996471;28;20046;-77
2022/01/18 07:43:19;;;;;;;20.60;4.90;;;6.00;99.90;;;;;;4992060;28;20913;-77
2022/01/18 07:45:49;;;;;;;13.25;5.22;;;6.00;99.90;;;;;;5000486;28;20115;-77
2022/01/18 07:48:15;;;;;;;16.10;5.15;;;6.00;99.90;;;;;;4991474;28;20916;-77
2022/01/18 07:50:41;;;;;;;17.23;4.78;;;6.00;99.90;;;;;;5009339;28;20042;-76
2022/01/18 07:53:07;;;;;;;14.05;4.50;;;5.90;99.90;;;;;;4989859;28;20041;-76
2022/01/18 07:55:33;;;;;;;19.83;4.55;;;5.90;99.90;;;;;;4975734;28;20046;-76
2022/01/18 07:58:00;;;;;;;25.23;4.95;;;6.00;99.90;;;;;;4994081;28;20394;-76
2022/01/18 08:00:26;;;;;;;20.08;4.75;;;6.00;99.90;;;;;;4995107;28;20073;-76
2022/01/18 08:02:52;;;;;;;21.30;4.13;;;6.00;99.90;;;;;;4979524;28;20042;-76
2022/01/18 08:05:18;;;;;;;14.60;4.07;;;6.00;99.90;;;;;;5005996;28;20520;-76
2022/01/18 08:07:44;;;;;;;15.95;4.30;;;6.00;99.90;;;;;;4975740;28;20421;-76
2022/01/18 08:10:12;;;;;;;15.45;4.80;;;6.00;99.90;;;;;;4975312;28;20042;-76
2022/01/18 08:12:38;;;;;;;21.40;4.63;;;6.00;99.90;;;;;;4993830;28;20034;-76
2022/01/18 08:15:13;;;;;;;20.40;4.90;;;6.00;99.90;;;;;;4993562;28;20030;-76
2022/01/18 08:17:41;;;;;;;18.77;5.35;;;6.10;99.90;;;;;;5003476;28;20121;-77
2022/01/18 08:20:10;;;;;;;21.13;5.22;;;6.10;99.90;;;;;;4990570;28;20030;-75
2022/01/18 08:22:36;;;;;;;20.13;5.10;;;6.10;99.90;;;;;;5009097;28;20066;-76
2022/01/18 08:25:02;;;;;;;19.27;3.88;;;6.10;99.90;;;;;;4993039;28;20037;-76
2022/01/18 08:27:28;;;;;;;19.88;4.40;;;6.10;99.90;;;;;;5007676;28;21077;-76
2022/01/18 08:29:53;;;;;;;16.95;3.70;;;6.10;99.90;;;;;;4992988;28;20046;-76
2022/01/18 08:32:19;;;;;;;16.33;4.80;;;6.20;99.90;;;;;;4974944;28;20048;-76
2022/01/18 08:34:45;;;;;;;18.60;4.57;;;6.20;99.90;;;;;;4991436;28;20069;-76
2022/01/18 08:37:11;;;;;;;17.80;4.30;;;6.20;99.90;;;;;;4991107;28;20885;-77
2022/01/18 08:39:37;;;;;;;19.48;4.68;;;6.20;99.90;;;;;;5005935;28;20068;-76
2022/01/18 08:42:02;;;;;;;19.27;4.70;;;6.20;99.90;;;;;;4964982;28;20109;-76
2022/01/18 08:44:29;;;;;;;18.05;4.55;;;6.20;99.90;;;;;;5006020;28;20378;-76
2022/01/18 08:46:55;;;;;;;22.55;5.18;;;6.20;99.90;;;;;;5007414;28;20098;-76
2022/01/18 08:49:21;;;;;;;23.25;6.05;;;6.20;99.90;;;;;;4993538;28;20049;-76
2022/01/18 08:51:46;;;;;;;14.63;5.60;;;6.20;99.90;;;;;;4973659;28;20043;-76
2022/01/18 08:54:12;;;;;;;22.15;7.18;;;6.30;99.90;;;;;;4973189;28;20130;-76
2022/01/18 08:56:38;;;;;;;21.55;5.85;;;6.20;99.90;;;;;;4975893;28;20057;-76
2022/01/18 08:59:03;;;;;;;21.55;6.68;;;6.30;99.90;;;;;;4992533;28;20042;-76
2022/01/18 09:01:29;;;;;;;22.42;7.00;;;6.30;99.90;;;;;;4989776;28;20576;-76
2022/01/18 09:03:55;;;;;;;24.27;8.60;;;6.30;99.90;;;;;;4970705;28;20042;-76
2022/01/18 09:06:23;;;;;;;22.58;7.80;;;6.30;99.90;;;;;;4991920;28;20088;-76
2022/01/18 09:08:55;;;;;;;20.17;7.45;;;6.30;99.90;;;;;;4972230;28;20038;-76
2022/01/18 09:11:26;;;;;;;25.42;8.00;;;6.30;99.90;;;;;;4989148;28;20046;-76
2022/01/18 09:13:52;;;;;;;31.42;9.77;;;6.30;99.90;;;;;;4971930;28;20066;-76
2022/01/18 09:16:19;;;;;;;21.65;8.02;;;6.40;99.90;;;;;;4992158;28;20429;-76
2022/01/18 09:18:46;;;;;;;20.67;8.73;;;6.40;99.90;;;;;;4977740;28;20092;-77
2022/01/18 09:21:12;;;;;;;26.05;8.43;;;6.40;99.90;;;;;;4991554;28;20505;-76
2022/01/18 09:23:39;;;;;;;22.08;9.30;;;6.40;99.90;;;;;;4975797;28;20084;-76
2022/01/18 09:26:06;;;;;;;20.13;7.90;;;6.40;99.90;;;;;;5004418;28;20104;-76
2022/01/18 09:28:32;;;;;;;25.20;8.93;;;6.50;99.90;;;;;;5008199;28;20057;-76
2022/01/18 09:30:58;;;;;;;21.95;8.48;;;6.50;99.90;;;;;;4987124;28;20402;-76
2022/01/18 09:33:23;;;;;;;23.45;7.55;;;6.40;99.90;;;;;;4972103;28;20038;-76
2022/01/18 09:35:49;;;;;;;22.10;9.50;;;6.50;99.90;;;;;;5004903;28;20045;-76
2022/01/18 09:38:15;;;;;;;20.65;8.45;;;6.50;99.90;;;;;;4994327;28;20038;-76
2022/01/18 09:40:43;;;;;;;23.48;9.57;;;6.50;99.90;;;;;;4973503;28;20042;-76
2022/01/18 09:43:12;;;;;;;23.08;9.57;;;6.60;99.90;;;;;;4986557;28;20046;-76
2022/01/18 09:45:41;;;;;;;28.02;9.27;;;6.50;99.90;;;;;;4972594;28;20049;-76
2022/01/18 09:48:09;;;;;;;21.83;9.68;;;6.70;99.90;;;;;;4988830;28;20084;-76
2022/01/18 09:50:36;;;;;;;23.52;8.27;;;6.60;99.90;;;;;;4991409;28;20073;-76
2022/01/18 09:53:05;;;;;;;24.85;9.75;;;6.60;99.90;;;;;;4991647;28;20116;-76
2022/01/18 09:55:33;;;;;;;24.55;9.40;;;6.60;99.90;;;;;;4972104;28;20364;-76
2022/01/18 09:58:00;;;;;;;29.75;9.05;;;6.60;99.90;;;;;;4989641;28;20037;-76
2022/01/18 10:00:28;;;;;;;30.05;9.18;;;6.70;99.90;;;;;;4992017;28;20046;-76
2022/01/18 10:02:54;;;;;;;23.85;9.73;;;6.80;99.90;;;;;;5004213;28;20050;-76
2022/01/18 10:05:24;;;;;;;24.50;9.68;;;6.70;99.90;;;;;;4990473;28;20053;-76
2022/01/18 10:08:12;;;;;;;25.35;8.63;;;6.80;99.90;;;;;;4987406;28;20069;-76
2022/01/18 10:10:51;;;;;;;19.10;8.25;;;6.80;99.90;;;;;;4972869;28;20046;-76
2022/01/18 10:13:21;;;;;;;23.42;8.05;;;6.80;99.90;;;;;;5004057;28;20149;-76
2022/01/18 10:16:08;;;;;;;27.30;7.60;;;6.90;99.90;;;;;;4990080;28;20070;-76
2022/01/18 10:18:55;;;;;;;18.38;8.05;;;6.90;99.90;;;;;;4990468;28;20034;-76
2022/01/18 10:21:29;;;;;;;20.70;7.95;;;6.90;99.90;;;;;;5006919;28;20076;-76
2022/01/18 10:24:17;;;;;;;22.60;7.90;;;6.90;99.90;;;;;;4994558;28;20060;-76
2022/01/18 10:26:45;;;;;;;24.70;8.75;;;6.90;99.90;;;;;;4993481;28;20034;-76
2022/01/18 10:29:13;;;;;;;23.05;9.88;;;6.90;99.90;;;;;;4977060;28;20045;-76
2022/01/18 10:32:36;;;;;;;23.55;8.45;;;6.90;99.90;;;;;;4995821;28;20037;-76
2022/01/18 10:37:10;;;;;;;25.10;7.03;;;6.90;99.90;;;;;;5007566;28;20126;-76
2022/01/18 10:39:41;;;;;;;20.77;7.40;;;7.00;99.90;;;;;;4977740;28;20057;-76
2022/01/18 10:42:20;;;;;;;16.15;6.82;;;6.90;99.90;;;;;;4974410;28;20041;-76
2022/01/18 10:44:57;;;;;;;21.23;6.47;;;6.90;99.90;;;;;;4994427;28;20158;-76
2022/01/18 10:47:24;;;;;;;16.65;5.45;;;7.00;99.90;;;;;;4986712;28;20038;-76
2022/01/18 10:49:50;;;;;;;20.92;7.43;;;7.00;99.90;;;;;;4994413;28;20057;-76
2022/01/18 10:52:24;;;;;;;20.58;7.43;;;7.10;99.90;;;;;;4993518;28;20039;-76
2022/01/18 10:54:54;;;;;;;19.02;5.55;;;7.10;99.90;;;;;;4993528;28;20520;-76
2022/01/18 10:57:22;;;;;;;14.75;4.80;;;7.10;99.90;;;;;;4995555;28;20073;-76
2022/01/18 10:59:54;;;;;;;23.40;5.22;;;7.10;99.90;;;;;;4973589;28;20038;-76
2022/01/18 11:02:21;;;;;;;17.33;4.85;;;7.10;99.90;;;;;;4971815;28;20043;-76
2022/01/18 11:04:48;;;;;;;15.57;4.28;;;7.10;99.90;;;;;;4988803;28;20120;-77
2022/01/18 11:07:23;;;;;;;18.27;5.22;;;7.20;99.90;;;;;;4995308;28;20049;-76
2022/01/18 11:09:50;;;;;;;18.05;4.68;;;7.20;99.90;;;;;;4977392;28;20042;-77
2022/01/18 11:12:19;;;;;;;12.85;2.88;;;7.20;99.90;;;;;;4992142;28;20042;-76
2022/01/18 11:14:47;;;;;;;15.35;3.60;;;7.20;99.90;;;;;;4974609;28;20060;-77
2022/01/18 11:17:24;;;;;;;11.70;3.70;;;7.20;99.90;;;;;;4991356;28;20042;-77
2022/01/18 11:19:54;;;;;;;12.60;3.20;;;7.20;99.90;;;;;;4976242;28;20046;-77
2022/01/18 11:22:24;;;;;;;15.38;3.75;;;7.30;99.90;;;;;;5010929;28;20041;-77
2022/01/18 11:24:51;;;;;;;9.93;3.22;;;7.30;99.90;;;;;;4992843;28;20041;-77
2022/01/18 11:27:18;;;;;;;13.27;3.80;;;7.30;99.90;;;;;;4994823;28;20046;-77
2022/01/18 11:29:47;;;;;;;17.08;4.03;;;7.30;99.90;;;;;;5007485;28;20061;-77
2022/01/18 11:32:14;;;;;;;9.88;3.15;;;7.30;99.90;;;;;;4993040;28;20026;-77
2022/01/18 11:34:55;;;;;;;13.70;3.50;;;7.30;99.90;;;;;;4974409;28;20042;-77
2022/01/18 11:37:45;;;;;;;12.73;3.08;;;7.20;99.90;;;;;;5009407;28;20086;-77
2022/01/18 11:40:14;;;;;;;9.93;2.35;;;7.20;99.90;;;;;;4993317;28;20045;-77
2022/01/18 11:42:42;;;;;;;10.02;3.33;;;7.30;99.90;;;;;;4972182;28;20046;-77
2022/01/18 11:45:25;;;;;;;10.70;2.83;;;7.40;99.90;;;;;;4990978;28;20046;-77
2022/01/18 11:48:03;;;;;;;10.00;2.50;;;7.30;99.90;;;;;;4993964;28;20042;-77
2022/01/18 11:50:32;;;;;;;14.93;3.13;;;7.30;99.90;;;;;;4980658;28;20046;-77
2022/01/18 11:53:22;;;;;;;9.85;2.22;;;7.30;99.90;;;;;;4979122;28;20092;-77
2022/01/18 11:55:48;;;;;;;9.55;1.95;;;7.30;99.90;;;;;;4974466;28;20034;-76
2022/01/18 11:58:14;;;;;;;11.15;2.55;;;7.30;99.90;;;;;;4979899;28;20046;-77
2022/01/18 12:00:52;;;;;;;11.02;2.75;;;7.30;99.90;;;;;;4993772;28;20046;-76
2022/01/18 12:03:22;;;;;;;8.20;2.00;;;7.30;99.90;;;;;;5010347;28;20050;-77
2022/01/18 12:05:49;;;;;;;8.27;2.10;;;7.30;99.90;;;;;;4994909;28;20049;-77
2022/01/18 12:08:39;;;;;;;7.53;1.77;;;7.30;99.90;;;;;;4978638;28;20091;-77
2022/01/18 12:11:12;;;;;;;16.20;3.58;;;7.30;99.90;;;;;;4989879;28;20450;-77
2022/01/18 12:13:41;;;;;;;11.38;2.08;;;7.20;99.90;;;;;;5009866;28;20048;-76
2022/01/18 12:16:17;;;;;;;10.68;2.25;;;7.20;99.90;;;;;;4993180;28;20109;-77
2022/01/18 12:19:09;;;;;;;12.88;2.75;;;7.20;99.90;;;;;;4990571;28;20125;-77
2022/01/18 12:21:44;;;;;;;10.23;2.70;;;7.20;99.90;;;;;;4971979;28;20098;-77
2022/01/18 12:24:22;;;;;;;11.48;2.70;;;7.20;99.90;;;;;;4995844;28;20045;-77
2022/01/18 12:26:59;;;;;;;9.50;2.78;;;7.20;99.90;;;;;;4992087;28;20649;-78
2022/01/18 12:32:05;;;;;;;14.25;3.22;;;7.20;99.90;;;;;;4991841;28;20199;-77
2022/01/18 12:34:46;;;;;;;14.20;3.42;;;7.20;99.90;;;;;;4990517;28;20100;-77
2022/01/18 12:37:13;;;;;;;11.27;3.33;;;7.20;99.90;;;;;;4979338;28;20053;-77
2022/01/18 12:45:10;;;;;;;13.10;4.88;;;7.20;99.90;;;;;;5005254;28;20116;-78
2022/01/18 12:47:59;;;;;;;15.18;3.85;;;7.20;99.90;;;;;;5007951;28;20057;-78
2022/01/18 12:50:34;;;;;;;13.32;4.72;;;7.20;99.90;;;;;;4976910;28;20049;-77
2022/01/18 12:53:08;;;;;;;10.40;4.07;;;7.20;99.90;;;;;;4973174;28;20034;-78
2022/01/18 12:55:55;;;;;;;13.77;3.78;;;7.20;99.90;;;;;;4994464;28;20046;-78
2022/01/18 12:58:35;;;;;;;11.90;4.47;;;7.20;99.90;;;;;;4980163;28;20042;-78
2022/01/18 13:01:16;;;;;;;13.10;4.95;;;7.20;99.90;;;;;;4995911;28;20409;-78
2022/01/18 13:03:47;;;;;;;14.40;4.78;;;7.20;99.90;;;;;;4979815;28;20049;-77
2022/01/18 13:06:19;;;;;;;13.07;4.88;;;7.20;99.90;;;;;;4994859;28;20121;-78
2022/01/18 13:08:54;;;;;;;15.95;4.90;;;7.30;99.90;;;;;;5007302;28;20042;-78
2022/01/18 13:11:25;;;;;;;20.08;5.50;;;7.20;99.90;;;;;;4990200;28;20525;-78
2022/01/18 13:14:06;;;;;;;18.15;5.55;;;7.20;99.90;;;;;;5006437;28;20133;-78
2022/01/18 13:27:12;;;;;;;16.35;6.03;;;7.20;99.90;;;;;;5007697;28;20064;-78
2022/01/18 13:29:38;;;;;;;20.77;5.65;;;7.20;99.90;;;;;;4974791;28;20122;-78
2022/01/18 13:32:29;;;;;;;17.35;6.95;;;7.20;99.90;;;;;;5005691;28;20121;-78
2022/01/18 13:35:02;;;;;;;15.00;5.80;;;7.20;99.90;;;;;;4975172;28;20069;-78
2022/01/18 13:37:32;;;;;;;16.73;6.10;;;7.20;99.90;;;;;;4962183;28;20038;-78
2022/01/18 13:40:01;;;;;;;15.98;5.80;;;7.20;99.90;;;;;;4991647;28;20413;-78
2022/01/18 13:42:38;;;;;;;15.18;5.60;;;7.20;99.90;;;;;;4971761;28;20084;-78
2022/01/18 13:45:17;;;;;;;15.60;6.18;;;7.20;99.90;;;;;;5004906;28;20085;-78
2022/01/18 13:47:50;;;;;;;14.68;6.40;;;7.20;99.90;;;;;;5007394;28;20520;-78
2022/01/18 13:50:38;;;;;;;24.88;6.25;;;7.20;99.90;;;;;;4974028;28;20069;-78
2022/01/18 13:53:09;;;;;;;19.30;5.93;;;7.10;99.90;;;;;;4987374;28;20157;-77
2022/01/18 13:55:38;;;;;;;13.88;5.68;;;7.00;99.90;;;;;;4987713;28;20144;-77
2022/01/18 13:58:04;;;;;;;18.17;5.15;;;7.10;99.90;;;;;;4991989;28;20050;-76
2022/01/18 14:00:31;;;;;;;16.60;7.32;;;7.10;99.90;;;;;;5003951;28;20676;-76
2022/01/18 14:02:57;;;;;;;20.67;6.18;;;7.10;99.90;;;;;;4993416;28;20038;-77
2022/01/18 14:05:24;;;;;;;17.58;7.13;;;7.10;99.90;;;;;;4991963;28;20100;-77
2022/01/18 14:08:02;;;;;;;16.40;6.13;;;7.00;99.90;;;;;;5004014;28;20049;-77
2022/01/18 14:10:28;;;;;;;17.02;5.40;;;7.10;99.90;;;;;;5007923;28;20058;-77
2022/01/18 14:12:53;;;;;;;14.95;5.40;;;7.10;99.90;;;;;;4973599;28;20042;-77
2022/01/18 14:15:39;;;;;;;16.13;5.68;;;7.10;99.90;;;;;;4993552;28;20685;-77
2022/01/18 14:18:05;;;;;;;19.05;6.03;;;7.10;99.90;;;;;;4971228;28;20046;-77
2022/01/18 14:20:32;;;;;;;21.52;6.10;;;7.00;99.90;;;;;;5004054;28;20042;-77
2022/01/18 14:23:00;;;;;;;18.73;5.72;;;7.00;99.90;;;;;;5004939;28;20042;-77
2022/01/18 14:25:33;;;;;;;13.48;5.82;;;7.00;99.90;;;;;;4975455;28;20050;-77
2022/01/18 14:28:14;;;;;;;18.15;5.90;;;7.00;99.90;;;;;;4990136;28;20385;-77
2022/01/18 14:30:43;;;;;;;17.33;5.75;;;7.00;99.90;;;;;;4989067;28;20125;-77